This is the latest recevied weather packets stored in our database for station/object K5JLG-10. If no packets are shown the sender has not sent any weather packets the latest 10 day(s).
| Time | Temp. | Humidity | Pressure | Rain* | Wind** | Luminosity | Snow |
|---|---|---|---|---|---|---|---|
| 1777394477 | 27.78° C | 83% | 1012 hPa | 0 mm | - | - | - |
| 1777391478 | 27.22° C | 86% | 1012.2 hPa | 0 mm | - | - | - |
| 1777390877 | 27.22° C | 85% | 1012 hPa | 0 mm | - | - | - |
| 1777390277 | 27.22° C | 85% | 1011.8 hPa | 0 mm | - | - | - |
| 1777387277 | 26.11° C | 88% | 1011.6 hPa | 0 mm | - | - | - |
| 1777377677 | 25.56° C | 88% | 1010.6 hPa | 0 mm | - | - | - |
| 1777375276 | 25.56° C | 87% | 1010.4 hPa | 0 mm | - | - | - |
| 1777368076 | 26.11° C | 87% | 1010.2 hPa | 0 mm | - | - | - |
| 1777367476 | 26.11° C | 87% | 1010.4 hPa | 0 mm | - | - | - |
| 1777345896 | 27.22° C | 80% | 1010.2 hPa | 0 mm | - | - | - |
| 1777345276 | 27.22° C | 80% | 1010.2 hPa | 0 mm | - | - | - |
| 1777344076 | 27.22° C | 81% | 1009.7 hPa | 0 mm | - | - | - |
| 1777339276 | 30.56° C | 70% | 1008 hPa | 0 mm | - | - | - |
| 1777332086 | 34.44° C | 44% | 1007.2 hPa | 0 mm | - | - | - |
| 1777329997 | 35° C | 43% | 1007.1 hPa | 0 mm | - | - | - |
| 1777325775 | 35.56° C | 42% | 1007 hPa | 0 mm | - | - | - |
| 1777323556 | 35° C | 41% | 1007.2 hPa | 0 mm | - | - | - |
| 1777316977 | 34.44° C | 49% | 1007.9 hPa | 0 mm | - | - | - |
| 1777315798 | 33.89° C | 53% | 1007.9 hPa | 0 mm | - | - | - |
| 1777311557 | 32.78° C | 63% | 1008.1 hPa | 0 mm | - | - | - |
| 1777310357 | 32.22° C | 65% | 1008.2 hPa | 0 mm | - | - | - |
| 1777309757 | 31.67° C | 67% | 1008.2 hPa | 0 mm | - | - | - |
| 1777306757 | 30° C | 74% | 1008.3 hPa | 0 mm | - | - | - |
| 1777306157 | 30° C | 76% | 1008.2 hPa | 0 mm | - | - | - |
| 1777295357 | 25° C | 86% | 1006.9 hPa | 0 mm | - | - | - |
* Rain latest hour (hover to see other rain measurements)
** Current wind speed in m/s (hover to see current wind gust speed)